createdAt,value
2023-11-19T00:01:25.033Z,2.35
2023-11-19T00:03:55.316Z,2.35
2023-11-19T00:06:26.069Z,0.73
2023-11-19T00:08:58.859Z,1.10
2023-11-19T00:11:29.001Z,1.23
2023-11-19T00:13:59.182Z,1.88
2023-11-19T00:16:29.645Z,1.20
2023-11-19T00:19:00.867Z,2.20
2023-11-19T00:21:31.236Z,2.17
2023-11-19T00:24:04.866Z,2.40
2023-11-19T00:26:35.288Z,1.50
2023-11-19T00:29:05.510Z,1.10
2023-11-19T00:31:36.106Z,1.55
2023-11-19T00:34:07.635Z,1.50
2023-11-19T00:36:37.934Z,1.88
2023-11-19T00:39:10.739Z,3.97
2023-11-19T00:41:41.393Z,1.58
2023-11-19T00:44:11.582Z,4.18
2023-11-19T00:46:41.768Z,2.58
2023-11-19T00:49:13.102Z,3.30
2023-11-19T00:51:43.316Z,6.78
2023-11-19T00:54:16.179Z,2.53
2023-11-19T00:56:46.462Z,2.33
2023-11-19T00:59:16.811Z,2.58
2023-11-19T01:01:49.184Z,2.42
2023-11-19T01:04:19.398Z,4.70
2023-11-19T01:06:50.126Z,2.17
2023-11-19T01:09:23.119Z,3.70
2023-11-19T01:11:53.344Z,4.55
2023-11-19T01:14:23.517Z,5.60
2023-11-19T01:16:55.154Z,3.30
2023-11-19T01:19:26.439Z,5.70
2023-11-19T01:21:57.204Z,2.22
2023-11-19T01:24:32.634Z,4.45
2023-11-19T01:27:02.818Z,5.07
2023-11-19T01:29:32.976Z,4.05
2023-11-19T01:32:03.100Z,2.72
2023-11-19T01:34:33.582Z,4.43
2023-11-19T01:37:03.776Z,4.82
2023-11-19T01:39:36.813Z,3.25
2023-11-19T01:42:07.429Z,2.72
2023-11-19T01:44:37.558Z,3.22
2023-11-19T01:47:08.795Z,5.78
2023-11-19T01:49:39.260Z,2.35
2023-11-19T01:52:10.049Z,5.75
2023-11-19T01:54:42.925Z,3.17
2023-11-19T01:57:13.604Z,1.70
2023-11-19T01:59:43.933Z,1.55
2023-11-19T02:02:14.581Z,1.80
2023-11-19T02:04:46.670Z,8.73
2023-11-19T02:07:18.688Z,1.95
2023-11-19T02:09:51.533Z,1.25
2023-11-19T02:12:21.860Z,1.58
2023-11-19T02:14:52.079Z,1.52
2023-11-19T02:17:33.001Z,2.08
2023-11-19T02:20:04.238Z,2.03
2023-11-19T02:22:34.382Z,1.90
2023-11-19T02:25:12.290Z,5.55
2023-11-19T02:27:59.597Z,2.65
2023-11-19T02:30:30.457Z,3.33
2023-11-19T02:33:04.631Z,3.30
2023-11-19T02:35:35.199Z,2.63
2023-11-19T02:38:05.409Z,4.05
2023-11-19T02:40:35.556Z,4.10
2023-11-19T02:43:09.892Z,6.15
2023-11-19T02:45:40.192Z,5.03
2023-11-19T02:48:11.129Z,4.70
2023-11-19T02:50:42.500Z,6.88
2023-11-19T02:53:14.463Z,5.50
2023-11-19T02:55:49.709Z,10.77
2023-11-19T02:58:26.161Z,6.22
2023-11-19T03:00:58.981Z,4.35
2023-11-19T03:03:30.778Z,7.05
2023-11-19T03:06:06.253Z,5.43
2023-11-19T03:11:07.743Z,9.63
2023-11-19T03:13:40.543Z,10.90
2023-11-19T03:16:15.075Z,6.93
2023-11-19T03:18:45.344Z,7.50
2023-11-19T03:21:15.616Z,9.77
2023-11-19T03:23:45.766Z,9.10
2023-11-19T03:26:15.873Z,13.63
2023-11-19T03:28:49.819Z,10.60
2023-11-19T03:31:20.124Z,7.28
2023-11-19T03:33:50.628Z,9.15
2023-11-19T03:36:20.758Z,8.98
2023-11-19T03:38:50.876Z,10.57
2023-11-19T03:41:22.633Z,9.45
2023-11-19T03:43:55.482Z,10.65
2023-11-19T03:46:26.225Z,11.90
2023-11-19T03:48:56.515Z,13.20
2023-11-19T03:51:26.897Z,11.80
2023-11-19T03:53:57.121Z,11.65
2023-11-19T03:56:28.406Z,12.52
2023-11-19T03:59:01.762Z,8.88
2023-11-19T04:01:32.081Z,9.93
2023-11-19T04:04:02.866Z,16.90
2023-11-19T04:06:33.102Z,16.02
2023-11-19T04:09:03.240Z,19.20
2023-11-19T04:11:33.968Z,14.05
2023-11-19T04:14:06.710Z,19.02
2023-11-19T04:16:36.948Z,17.10
2023-11-19T04:19:07.860Z,19.67
2023-11-19T04:21:38.082Z,14.23
2023-11-19T04:24:08.968Z,18.38
2023-11-19T04:26:39.226Z,8.38
2023-11-19T04:29:12.490Z,17.13
2023-11-19T04:31:43.073Z,20.17
2023-11-19T04:34:13.282Z,17.80
2023-11-19T04:36:43.520Z,19.35
2023-11-19T04:39:16.677Z,20.55
2023-11-19T04:41:54.324Z,16.35
2023-11-19T04:44:27.140Z,16.15
2023-11-19T04:46:57.448Z,17.65
2023-11-19T04:49:28.718Z,17.10
2023-11-19T04:51:59.087Z,17.20
2023-11-19T04:54:29.325Z,18.15
2023-11-19T04:56:59.509Z,22.95
2023-11-19T04:59:32.309Z,18.02
2023-11-19T05:02:02.462Z,19.20
2023-11-19T05:04:32.735Z,15.23
2023-11-19T05:07:03.087Z,31.50
2023-11-19T05:09:34.650Z,23.60
2023-11-19T05:12:04.826Z,19.65
2023-11-19T05:14:37.571Z,25.48
2023-11-19T05:17:09.259Z,27.42
2023-11-19T05:19:39.897Z,21.67
2023-11-19T05:22:10.276Z,25.23
2023-11-19T05:24:40.745Z,21.50
2023-11-19T05:27:12.517Z,37.33
2023-11-19T05:29:45.404Z,23.75
2023-11-19T05:32:15.564Z,21.27
2023-11-19T05:37:20.058Z,23.50
2023-11-19T05:39:50.502Z,33.78
2023-11-19T05:42:20.956Z,23.83
2023-11-19T05:44:53.925Z,32.25
2023-11-19T05:47:24.172Z,30.92
2023-11-19T05:49:54.858Z,27.10
2023-11-19T05:52:25.157Z,34.22
2023-11-19T05:54:55.626Z,27.73
2023-11-19T05:57:26.776Z,33.38
2023-11-19T06:00:00.406Z,32.08
2023-11-19T06:02:30.929Z,27.00
2023-11-19T06:05:01.138Z,26.98
2023-11-19T06:07:31.516Z,24.42
2023-11-19T06:10:01.759Z,19.95
2023-11-19T06:12:34.983Z,24.63
2023-11-19T06:15:10.117Z,27.02
2023-11-19T06:17:40.398Z,22.55
2023-11-19T06:20:13.423Z,32.17
2023-11-19T06:22:47.056Z,32.50
2023-11-19T06:25:19.960Z,19.25
2023-11-19T06:27:50.489Z,28.05
2023-11-19T06:30:23.654Z,22.80
2023-11-19T06:32:53.949Z,26.50
2023-11-19T06:35:24.441Z,23.20
2023-11-19T06:37:54.641Z,27.60
2023-11-19T06:40:24.970Z,23.08
2023-11-19T06:42:55.332Z,27.35
2023-11-19T06:45:28.213Z,17.77
2023-11-19T06:47:59.973Z,25.25
2023-11-19T06:50:30.168Z,21.70
2023-11-19T06:53:00.361Z,22.58
2023-11-19T06:55:31.836Z,36.65
2023-11-19T06:58:04.594Z,26.98
2023-11-19T07:00:37.575Z,28.45
2023-11-19T07:03:10.020Z,25.50
2023-11-19T07:05:41.941Z,28.63
2023-11-19T07:08:12.435Z,25.73
2023-11-19T07:10:42.766Z,28.52
2023-11-19T07:13:12.938Z,25.33
2023-11-19T07:15:45.691Z,23.38
2023-11-19T07:18:16.293Z,23.38
2023-11-19T07:20:47.515Z,25.77
2023-11-19T07:23:18.031Z,25.23
2023-11-19T07:25:49.590Z,39.67
2023-11-19T07:28:20.240Z,28.52
2023-11-19T07:30:53.618Z,32.53
2023-11-19T07:33:23.917Z,27.80
2023-11-19T07:35:54.394Z,24.67
2023-11-19T07:38:24.601Z,20.95
2023-11-19T07:40:57.138Z,24.23
2023-11-19T07:43:27.800Z,23.90
2023-11-19T07:46:00.681Z,21.35
2023-11-19T07:48:30.800Z,24.95
2023-11-19T07:51:01.315Z,27.17
2023-11-19T07:53:31.534Z,26.10
2023-11-19T07:56:02.335Z,30.65
2023-11-19T07:58:32.726Z,22.80
2023-11-19T08:01:05.872Z,26.83
2023-11-19T08:03:36.412Z,24.27
2023-11-19T08:06:08.244Z,34.15
2023-11-19T08:08:39.395Z,29.83
2023-11-19T08:11:10.241Z,31.75
2023-11-19T08:13:40.565Z,19.73
2023-11-19T08:16:13.945Z,30.83
2023-11-19T08:18:46.864Z,17.88
2023-11-19T08:21:17.292Z,26.73
2023-11-19T08:23:47.505Z,28.40
2023-11-19T08:26:22.062Z,32.10
2023-11-19T08:28:53.300Z,33.38
2023-11-19T08:31:26.146Z,29.02
2023-11-19T08:33:56.267Z,20.85
2023-11-19T08:36:26.596Z,30.25
2023-11-19T08:38:56.768Z,26.50
2023-11-19T08:41:26.943Z,36.10
2023-11-19T08:43:57.225Z,33.90
2023-11-19T08:46:30.009Z,34.60
2023-11-19T08:49:01.731Z,22.98
2023-11-19T08:51:31.943Z,29.55
2023-11-19T08:54:02.128Z,22.05
2023-11-19T08:56:34.204Z,28.00
2023-11-19T08:59:05.559Z,21.10
2023-11-19T09:01:38.437Z,35.78
2023-11-19T09:04:08.826Z,39.60
2023-11-19T09:06:41.618Z,24.85
2023-11-19T09:09:12.091Z,27.73
2023-11-19T09:11:42.313Z,28.27
2023-11-19T09:14:12.790Z,28.23
2023-11-19T09:16:45.652Z,33.88
2023-11-19T09:19:15.772Z,42.42
2023-11-19T09:21:45.914Z,28.58
2023-11-19T09:24:17.075Z,22.85
2023-11-19T09:26:47.374Z,29.30
2023-11-19T09:29:18.342Z,24.98
2023-11-19T09:31:51.129Z,24.90
2023-11-19T09:34:21.377Z,24.38
2023-11-19T09:36:51.513Z,25.05
2023-11-19T09:39:22.641Z,29.48
2023-11-19T09:41:52.787Z,31.08
2023-11-19T09:44:23.503Z,21.27
2023-11-19T09:46:57.317Z,26.92
2023-11-19T09:52:04.012Z,26.48
2023-11-19T09:54:34.209Z,32.90
2023-11-19T09:57:08.976Z,25.70
2023-11-19T09:59:41.222Z,29.95
2023-11-19T10:02:14.366Z,26.00
2023-11-19T10:04:48.387Z,19.48
2023-11-19T10:07:18.684Z,36.60
2023-11-19T10:09:49.085Z,25.20
2023-11-19T10:12:19.715Z,27.80
2023-11-19T10:14:52.444Z,25.63
2023-11-19T10:17:25.243Z,23.73
2023-11-19T10:19:55.482Z,28.15
2023-11-19T10:22:27.926Z,23.75
2023-11-19T10:24:58.426Z,20.33
2023-11-19T10:27:29.424Z,22.70
2023-11-19T10:30:04.379Z,23.52
2023-11-19T10:32:37.255Z,24.08
2023-11-19T10:35:13.614Z,24.42
2023-11-19T10:37:43.852Z,38.08
2023-11-19T10:40:15.172Z,25.90
2023-11-19T10:42:46.266Z,33.75
2023-11-19T10:45:27.644Z,29.45
2023-11-19T10:48:01.822Z,35.22
2023-11-19T10:50:32.122Z,26.30
2023-11-19T10:53:02.734Z,25.10
2023-11-19T10:55:36.249Z,37.88
2023-11-19T10:58:09.225Z,21.50
2023-11-19T11:00:45.230Z,23.02
2023-11-19T11:03:23.709Z,23.60
2023-11-19T11:05:55.372Z,27.90
2023-11-19T11:08:25.522Z,29.13
2023-11-19T11:10:58.897Z,25.33
2023-11-19T11:13:31.983Z,21.85
2023-11-19T11:16:02.719Z,21.85
2023-11-19T11:18:35.555Z,26.00
2023-11-19T11:21:12.538Z,37.80
2023-11-19T11:24:27.804Z,29.98
2023-11-19T11:27:32.265Z,32.92
2023-11-19T11:30:18.104Z,20.17
2023-11-19T11:33:06.841Z,30.08
2023-11-19T11:35:54.544Z,24.55
2023-11-19T11:38:27.658Z,19.52
2023-11-19T11:41:26.578Z,31.33
2023-11-19T11:44:01.503Z,32.55
2023-11-19T11:47:00.256Z,26.30
2023-11-19T11:49:36.059Z,25.17
2023-11-19T11:52:09.577Z,23.42
2023-11-19T11:54:40.097Z,22.33
2023-11-19T11:57:17.731Z,25.25
2023-11-19T11:59:51.147Z,28.67
2023-11-19T12:02:23.506Z,19.00
2023-11-19T12:04:56.376Z,16.60
2023-11-19T12:07:29.684Z,23.08
2023-11-19T12:10:13.446Z,19.30
2023-11-19T12:12:44.667Z,18.48
2023-11-19T12:15:16.258Z,22.77
2023-11-19T12:17:53.333Z,17.80
2023-11-19T12:23:10.923Z,22.42
2023-11-19T12:25:41.132Z,18.70
2023-11-19T12:28:18.476Z,27.30
2023-11-19T12:30:49.871Z,30.05
2023-11-19T12:33:21.085Z,28.98
2023-11-19T12:35:52.409Z,18.65
2023-11-19T12:38:30.087Z,16.85
2023-11-19T12:41:12.550Z,13.98
2023-11-19T12:46:23.242Z,22.17
2023-11-19T12:48:54.861Z,15.70
2023-11-19T12:51:25.431Z,19.45
2023-11-19T12:53:59.681Z,17.13
2023-11-19T12:56:31.097Z,20.00
2023-11-19T12:59:01.290Z,17.70
2023-11-19T13:01:31.920Z,17.83
2023-11-19T13:04:02.171Z,23.48
2023-11-19T13:06:32.364Z,22.77
2023-11-19T13:09:05.125Z,17.23
2023-11-19T13:11:36.837Z,21.70
2023-11-19T13:14:10.378Z,15.50
2023-11-19T13:16:43.732Z,22.95
2023-11-19T13:19:14.772Z,23.30
2023-11-19T13:21:47.372Z,24.13
2023-11-19T13:24:20.189Z,26.02
2023-11-19T13:26:50.371Z,20.48
2023-11-19T13:29:20.885Z,21.48
2023-11-19T13:31:51.503Z,25.90
2023-11-19T13:34:21.839Z,23.95
2023-11-19T13:36:52.068Z,21.55
2023-11-19T13:39:25.181Z,23.58
2023-11-19T13:42:13.082Z,26.20
2023-11-19T13:44:43.946Z,17.73
2023-11-19T13:47:15.176Z,20.00
2023-11-19T13:49:45.389Z,14.43
2023-11-19T13:52:15.549Z,15.68
2023-11-19T13:54:48.368Z,15.75
2023-11-19T13:57:18.497Z,27.40
2023-11-19T13:59:48.711Z,22.35
2023-11-19T14:02:18.944Z,20.60
2023-11-19T14:04:49.205Z,25.65
2023-11-19T14:07:19.418Z,19.42
2023-11-19T14:09:52.219Z,19.95
2023-11-19T14:12:22.534Z,16.35
2023-11-19T14:14:52.987Z,21.17
2023-11-19T14:17:23.247Z,24.52
2023-11-19T14:19:53.404Z,20.75
2023-11-19T14:22:23.704Z,23.45
2023-11-19T14:24:58.357Z,13.98
2023-11-19T14:27:28.762Z,16.92
2023-11-19T14:29:58.934Z,17.20
2023-11-19T14:32:29.196Z,17.10
2023-11-19T14:34:59.438Z,22.35
2023-11-19T14:37:29.723Z,24.55
2023-11-19T14:40:04.507Z,21.95
2023-11-19T14:42:34.806Z,18.85
2023-11-19T14:45:04.951Z,18.83
2023-11-19T14:47:35.157Z,29.88
2023-11-19T14:50:05.373Z,21.35
2023-11-19T14:52:35.555Z,20.52
2023-11-19T14:55:11.006Z,18.77
2023-11-19T14:57:45.149Z,22.98
2023-11-19T15:00:19.110Z,16.80
2023-11-19T15:02:49.298Z,20.20
2023-11-19T15:05:19.558Z,25.42
2023-11-19T15:07:49.749Z,16.95
2023-11-19T15:10:22.774Z,24.50
2023-11-19T15:12:54.865Z,22.05
2023-11-19T15:17:58.389Z,19.13
2023-11-19T15:20:31.118Z,28.40
2023-11-19T15:23:01.425Z,19.70
2023-11-19T15:25:34.257Z,20.60
2023-11-19T15:28:04.465Z,18.48
2023-11-19T15:30:34.740Z,13.80
2023-11-19T15:33:04.956Z,24.63
2023-11-19T15:35:35.187Z,18.17
2023-11-19T15:38:05.583Z,16.35
2023-11-19T15:40:38.544Z,19.77
2023-11-19T15:43:08.793Z,26.05
2023-11-19T15:45:40.799Z,25.45
2023-11-19T15:48:14.999Z,26.35
2023-11-19T15:50:45.917Z,22.23
2023-11-19T15:53:16.178Z,22.33
2023-11-19T15:55:49.323Z,38.65
2023-11-19T15:58:19.498Z,21.17
2023-11-19T16:00:49.983Z,22.27
2023-11-19T16:03:20.530Z,13.73
2023-11-19T16:06:01.435Z,13.65
2023-11-19T16:08:37.614Z,17.25
2023-11-19T16:11:11.301Z,20.25
2023-11-19T16:13:41.714Z,15.23
2023-11-19T16:16:12.610Z,19.30
2023-11-19T16:18:42.928Z,22.42
2023-11-19T16:21:13.176Z,18.25
2023-11-19T16:23:43.475Z,19.85
2023-11-19T16:26:16.585Z,20.35
2023-11-19T16:28:46.963Z,23.20
2023-11-19T16:31:17.449Z,17.05
2023-11-19T16:33:47.683Z,17.75
2023-11-19T16:36:18.624Z,25.13
2023-11-19T16:38:48.922Z,21.77
2023-11-19T16:41:35.731Z,16.63
2023-11-19T16:44:10.915Z,20.50
2023-11-19T16:46:41.382Z,17.85
2023-11-19T16:49:11.565Z,17.52
2023-11-19T16:51:42.164Z,23.05
2023-11-19T16:54:13.730Z,15.93
2023-11-19T16:56:48.759Z,18.60
2023-11-19T16:59:19.060Z,25.77
2023-11-19T17:01:50.002Z,17.92
2023-11-19T17:04:21.095Z,19.83
2023-11-19T17:06:51.352Z,21.25
2023-11-19T17:09:21.511Z,20.52
2023-11-19T17:11:54.728Z,18.10
2023-11-19T17:16:58.239Z,20.95
2023-11-19T17:19:28.394Z,18.20
2023-11-19T17:21:58.585Z,23.75
2023-11-19T17:24:28.854Z,30.77
2023-11-19T17:27:01.725Z,16.98
2023-11-19T17:29:34.619Z,20.88
2023-11-19T17:32:05.009Z,20.05
2023-11-19T17:34:35.769Z,24.63
2023-11-19T17:37:06.010Z,24.30
2023-11-19T17:39:36.121Z,22.05
2023-11-19T17:42:09.673Z,19.67
2023-11-19T17:44:39.896Z,26.48
2023-11-19T17:47:10.160Z,20.38
2023-11-19T17:49:41.777Z,18.10
2023-11-19T17:52:12.329Z,17.15
2023-11-19T17:54:42.518Z,21.77
2023-11-19T17:57:16.449Z,28.05
2023-11-19T17:59:48.209Z,21.92
2023-11-19T18:02:19.841Z,27.83
2023-11-19T18:04:51.020Z,22.20
2023-11-19T18:07:21.496Z,22.50
2023-11-19T18:09:51.693Z,19.85
2023-11-19T18:12:24.469Z,24.60
2023-11-19T18:14:55.382Z,19.80
2023-11-19T18:17:25.660Z,23.75
2023-11-19T18:19:56.077Z,26.20
2023-11-19T18:22:26.358Z,27.60
2023-11-19T18:24:56.529Z,28.48
2023-11-19T18:27:29.438Z,25.35
2023-11-19T18:29:59.761Z,26.50
2023-11-19T18:32:30.149Z,13.80
2023-11-19T18:35:00.522Z,23.25
2023-11-19T18:37:30.707Z,21.88
2023-11-19T18:40:01.717Z,17.67
2023-11-19T18:42:35.565Z,21.23
2023-11-19T18:45:06.119Z,22.10
2023-11-19T18:47:38.956Z,19.50
2023-11-19T18:50:11.485Z,30.20
2023-11-19T18:52:42.072Z,28.23
2023-11-19T18:55:13.057Z,25.33
2023-11-19T18:57:45.936Z,22.20
2023-11-19T19:00:18.005Z,19.85
2023-11-19T19:05:24.860Z,26.83
2023-11-19T19:07:58.004Z,19.95
2023-11-19T19:10:28.527Z,22.45
2023-11-19T19:13:01.319Z,19.52
2023-11-19T19:15:31.463Z,22.30
2023-11-19T19:18:01.848Z,20.77
2023-11-19T19:20:32.150Z,19.95
2023-11-19T19:23:02.379Z,15.57
2023-11-19T19:25:32.550Z,14.93
2023-11-19T19:30:40.155Z,15.38
2023-11-19T19:33:10.484Z,17.63
2023-11-19T19:35:40.891Z,13.35
2023-11-19T19:38:11.350Z,18.48
2023-11-19T19:40:41.898Z,15.73
2023-11-19T19:43:14.785Z,12.00
2023-11-19T19:45:45.209Z,15.75
2023-11-19T19:48:15.465Z,6.72
2023-11-19T19:50:46.503Z,16.30
2023-11-19T19:53:16.697Z,7.68
2023-11-19T19:55:47.116Z,11.10
2023-11-19T19:58:19.874Z,9.00
2023-11-19T20:00:50.342Z,11.93
2023-11-19T20:03:20.712Z,9.07
2023-11-19T20:05:51.075Z,18.08
2023-11-19T20:08:21.474Z,9.10
2023-11-19T20:10:53.183Z,8.05
2023-11-19T20:13:26.985Z,12.32
2023-11-19T20:15:57.131Z,10.38
2023-11-19T20:18:30.600Z,6.15
2023-11-19T20:21:03.894Z,3.75
2023-11-19T20:23:34.109Z,7.53
2023-11-19T20:26:04.411Z,8.73
2023-11-19T20:28:37.128Z,5.15
2023-11-19T20:31:07.593Z,8.63
2023-11-19T20:33:37.742Z,7.97
2023-11-19T20:36:09.452Z,13.20
2023-11-19T20:38:40.829Z,6.20
2023-11-19T20:41:12.777Z,7.80
2023-11-19T20:43:45.789Z,7.53
2023-11-19T20:46:15.977Z,6.97
2023-11-19T20:48:46.303Z,8.80
2023-11-19T20:51:16.916Z,6.72
2023-11-19T20:53:47.667Z,5.43
2023-11-19T20:56:17.831Z,4.45
2023-11-19T20:58:50.635Z,5.00
2023-11-19T21:01:21.185Z,9.35
2023-11-19T21:03:51.528Z,6.00
2023-11-19T21:06:22.975Z,4.78
2023-11-19T21:08:53.224Z,3.72
2023-11-19T21:11:23.442Z,4.97
2023-11-19T21:13:56.256Z,6.82
2023-11-19T21:16:27.644Z,4.60
2023-11-19T21:18:57.878Z,5.03
2023-11-19T21:21:28.120Z,3.88
2023-11-19T21:23:59.742Z,3.65
2023-11-19T21:26:29.888Z,9.55
2023-11-19T21:29:02.655Z,6.63
2023-11-19T21:31:32.891Z,5.32
2023-11-19T21:34:03.525Z,4.72
2023-11-19T21:36:33.836Z,7.35
2023-11-19T21:39:04.177Z,5.72
2023-11-19T21:41:34.369Z,6.97
2023-11-19T21:44:08.308Z,7.15
2023-11-19T21:46:38.444Z,9.25
2023-11-19T21:49:08.715Z,13.82
2023-11-19T21:51:43.819Z,3.92
2023-11-19T21:54:14.047Z,5.25
2023-11-19T21:56:44.230Z,7.28
2023-11-19T21:59:17.096Z,5.43
2023-11-19T22:01:47.370Z,5.28
2023-11-19T22:04:18.064Z,8.52
2023-11-19T22:06:48.500Z,8.70
2023-11-19T22:09:18.713Z,7.85
2023-11-19T22:11:48.940Z,6.30
2023-11-19T22:14:23.074Z,8.00
2023-11-19T22:16:53.497Z,3.65
2023-11-19T22:19:24.165Z,5.82
2023-11-19T22:21:54.604Z,5.20
2023-11-19T22:24:24.874Z,4.30
2023-11-19T22:26:56.202Z,4.22
2023-11-19T22:29:28.970Z,3.95
2023-11-19T22:31:59.430Z,5.25
2023-11-19T22:34:29.562Z,8.23
2023-11-19T22:36:59.741Z,4.60
2023-11-19T22:39:29.982Z,7.03
2023-11-19T22:42:00.797Z,7.70
2023-11-19T22:44:33.571Z,6.28
2023-11-19T22:47:03.997Z,4.78
2023-11-19T22:49:34.145Z,6.25
2023-11-19T22:52:04.434Z,8.07
2023-11-19T22:54:34.641Z,5.05
2023-11-19T22:57:04.863Z,10.95
2023-11-19T22:59:37.635Z,7.28
2023-11-19T23:02:08.461Z,8.15
2023-11-19T23:04:38.646Z,11.40
2023-11-19T23:07:10.016Z,9.05
2023-11-19T23:09:41.446Z,5.57
2023-11-19T23:12:12.452Z,6.95
2023-11-19T23:14:45.254Z,6.45
2023-11-19T23:17:18.106Z,11.73
2023-11-19T23:19:50.196Z,7.47
2023-11-19T23:24:54.978Z,6.97
2023-11-19T23:27:25.248Z,8.75
2023-11-19T23:29:59.214Z,7.93
2023-11-19T23:32:29.472Z,12.07
2023-11-19T23:34:59.865Z,10.15
2023-11-19T23:37:30.053Z,6.65
2023-11-19T23:40:01.463Z,10.50
2023-11-19T23:42:31.747Z,8.45
2023-11-19T23:45:04.590Z,6.00
2023-11-19T23:47:35.456Z,11.00
2023-11-19T23:50:06.688Z,3.72
2023-11-19T23:52:37.167Z,5.88
2023-11-19T23:55:08.428Z,9.20
2023-11-19T23:57:38.660Z,8.32
